Time;durP1;ratioP1;P1;durP2;ratioP2;P2;SDS_P1;SDS_P2;PMS_P1;PMS_P2;Temp;Humidity;BMP_temperature;BMP_pressure;BME280_temperature;BME280_humidity;BME280_pressure;Samples;Min_cycle;Max_cycle;Signal;HPM_P1;HPM_P2
2020/12/07 00:00:24;;;;;;;529.60;42.17;;;4.10;99.90;;;;;;4086767;29;20200;-91
2020/12/07 00:02:24;;;;;;;664.63;48.00;;;4.10;99.90;;;;;;4102736;29;20237;-90
2020/12/07 00:04:25;;;;;;;549.63;43.37;;;4.00;99.90;;;;;;4102705;29;20170;-89
2020/12/07 00:06:26;;;;;;;548.53;42.97;;;4.00;99.90;;;;;;4102621;29;20618;-90
2020/12/07 00:08:27;;;;;;;499.27;41.43;;;4.00;99.90;;;;;;4102576;29;20175;-90
2020/12/07 00:10:27;;;;;;;586.77;43.43;;;4.10;99.90;;;;;;4102603;28;20199;-88
2020/12/07 00:12:29;;;;;;;449.33;38.73;;;4.00;99.90;;;;;;4102635;29;20163;-92
2020/12/07 00:14:30;;;;;;;508.90;39.90;;;3.90;99.90;;;;;;4086569;28;20227;-89
2020/12/07 00:16:30;;;;;;;540.40;41.40;;;3.70;99.90;;;;;;4085694;29;20215;-90
2020/12/07 00:18:31;;;;;;;459.33;38.80;;;3.80;99.90;;;;;;4086692;29;20266;-89
2020/12/07 00:20:32;;;;;;;669.37;43.47;;;3.60;99.90;;;;;;4086670;29;20208;-92
2020/12/07 00:22:32;;;;;;;638.33;43.53;;;3.60;99.90;;;;;;4086798;29;20635;-88
2020/12/07 00:24:33;;;;;;;598.70;42.47;;;3.60;99.90;;;;;;4086483;29;20178;-89
2020/12/07 00:26:34;;;;;;;412.47;39.00;;;3.50;99.90;;;;;;4102430;29;20202;-91
2020/12/07 00:28:35;;;;;;;426.87;37.53;;;3.40;99.90;;;;;;4086396;29;20176;-90
2020/12/07 00:30:35;;;;;;;367.60;37.77;;;3.40;99.90;;;;;;4102245;29;20243;-91
2020/12/07 00:32:36;;;;;;;354.53;37.73;;;3.40;99.90;;;;;;4086435;29;20274;-91
2020/12/07 00:34:37;;;;;;;333.03;36.93;;;3.40;99.90;;;;;;4086490;29;20203;-89
2020/12/07 00:36:42;;;;;;;479.67;42.43;;;3.40;99.90;;;;;;4102367;29;20225;-89
2020/12/07 00:38:43;;;;;;;351.50;39.40;;;3.20;99.90;;;;;;4086443;29;20176;-89
2020/12/07 00:40:43;;;;;;;505.90;43.73;;;3.20;99.90;;;;;;4102217;29;20195;-88
2020/12/07 00:42:44;;;;;;;292.60;38.23;;;3.40;99.90;;;;;;4086527;29;20183;-89
2020/12/07 00:44:45;;;;;;;368.47;39.60;;;3.50;99.90;;;;;;4086527;29;20187;-89
2020/12/07 00:46:48;;;;;;;446.70;39.93;;;3.40;99.90;;;;;;4086552;29;20298;-89
2020/12/07 00:48:49;;;;;;;321.33;38.97;;;3.20;99.90;;;;;;4086390;29;20207;-91
2020/12/07 00:50:49;;;;;;;418.03;38.30;;;3.20;99.90;;;;;;4086071;29;20200;-91
2020/12/07 00:52:50;;;;;;;247.33;34.10;;;3.20;99.90;;;;;;4086159;29;20196;-91
2020/12/07 00:54:51;;;;;;;335.50;37.43;;;3.00;99.90;;;;;;4086187;29;20183;-89
2020/12/07 00:56:57;;;;;;;256.50;35.73;;;3.00;99.90;;;;;;4085988;29;20644;-88
2020/12/07 00:59:01;;;;;;;348.63;38.13;;;2.90;99.90;;;;;;4085944;29;20261;-90
2020/12/07 01:01:03;;;;;;;273.00;36.73;;;2.90;99.90;;;;;;4101836;29;20179;-89
2020/12/07 01:03:05;;;;;;;253.20;35.70;;;2.80;99.90;;;;;;4086255;29;20167;-93
2020/12/07 01:05:05;;;;;;;362.20;38.70;;;2.80;99.90;;;;;;4102339;29;20198;-92
2020/12/07 01:07:07;;;;;;;350.27;38.00;;;2.90;99.90;;;;;;4085901;29;20646;-89
2020/12/07 01:09:08;;;;;;;482.97;43.57;;;2.90;99.90;;;;;;4086256;29;20639;-91
2020/12/07 01:11:13;;;;;;;474.00;41.40;;;2.90;99.90;;;;;;4086136;29;20675;-89
2020/12/07 01:13:14;;;;;;;525.27;43.40;;;2.90;99.90;;;;;;4086045;29;20184;-91
2020/12/07 01:15:15;;;;;;;569.47;44.43;;;3.00;99.90;;;;;;4085627;29;20343;-91
2020/12/07 01:17:19;;;;;;;374.13;42.23;;;3.10;99.90;;;;;;4085961;29;20179;-90
2020/12/07 01:19:23;;;;;;;491.70;44.97;;;3.20;99.90;;;;;;4086088;29;20196;-89
2020/12/07 01:21:24;;;;;;;510.37;46.47;;;3.40;99.90;;;;;;4085782;29;20191;-90
2020/12/07 01:23:25;;;;;;;374.03;42.83;;;3.40;99.90;;;;;;4101714;29;20175;-89
2020/12/07 01:25:27;;;;;;;405.90;42.40;;;3.40;99.90;;;;;;4085632;29;20175;-91
2020/12/07 01:27:28;;;;;;;389.20;42.50;;;3.50;99.90;;;;;;4085600;29;20603;-89
2020/12/07 01:29:29;;;;;;;435.53;45.43;;;3.60;99.90;;;;;;4085515;29;20663;-89
2020/12/07 01:31:30;;;;;;;514.80;46.27;;;3.70;99.90;;;;;;4085612;29;20172;-91
2020/12/07 01:33:30;;;;;;;498.03;46.07;;;3.80;99.90;;;;;;4085642;29;20172;-89
2020/12/07 01:35:31;;;;;;;281.03;41.00;;;3.80;99.90;;;;;;4085356;29;20168;-90
2020/12/07 01:37:32;;;;;;;497.53;46.00;;;3.70;99.90;;;;;;4086082;29;20565;-90
2020/12/07 01:39:33;;;;;;;315.97;41.33;;;3.70;99.90;;;;;;4085438;29;20184;-91
2020/12/07 01:41:34;;;;;;;509.50;45.33;;;3.60;99.90;;;;;;4101301;29;20546;-90
2020/12/07 01:43:35;;;;;;;406.33;43.13;;;3.60;99.90;;;;;;4085495;29;20266;-93
2020/12/07 01:45:36;;;;;;;371.97;43.13;;;3.70;99.90;;;;;;4085278;29;20180;-90
2020/12/07 01:47:37;;;;;;;256.47;37.60;;;3.80;99.90;;;;;;4085633;29;20215;-90
2020/12/07 01:49:43;;;;;;;489.17;46.27;;;3.80;99.90;;;;;;4085755;29;20663;-89
2020/12/07 01:51:44;;;;;;;457.83;43.33;;;3.80;99.90;;;;;;4101453;29;20171;-91
2020/12/07 01:53:48;;;;;;;347.30;42.57;;;3.70;99.90;;;;;;4085624;29;20182;-89
2020/12/07 01:55:50;;;;;;;346.43;43.37;;;3.90;99.90;;;;;;4085769;29;20182;-89
2020/12/07 01:57:51;;;;;;;348.93;38.90;;;4.00;99.90;;;;;;4085077;29;20164;-90
2020/12/07 01:59:52;;;;;;;339.10;40.20;;;3.70;99.90;;;;;;4085048;29;20199;-90
2020/12/07 02:01:53;;;;;;;333.53;40.70;;;3.40;99.90;;;;;;4085169;29;20262;-90
2020/12/07 02:03:54;;;;;;;390.27;40.37;;;3.40;99.90;;;;;;4085070;29;20231;-91
2020/12/07 02:05:56;;;;;;;349.60;39.93;;;3.40;99.90;;;;;;4100873;28;20203;-91
2020/12/07 02:08:17;;;;;;;362.80;42.83;;;3.30;99.90;;;;;;4085019;29;20654;-90
2020/12/07 02:10:26;;;;;;;306.17;37.23;;;3.40;99.90;;;;;;4086066;29;20768;-90
2020/12/07 02:12:28;;;;;;;339.27;41.10;;;3.50;99.90;;;;;;4100462;28;20266;-91
2020/12/07 02:14:29;;;;;;;499.00;42.37;;;3.20;99.90;;;;;;4084742;29;20283;-91
2020/12/07 02:16:30;;;;;;;398.03;43.07;;;3.20;99.90;;;;;;4085446;29;20179;-91
2020/12/07 02:18:35;;;;;;;389.33;43.90;;;3.30;99.90;;;;;;4101432;29;20239;-91
2020/12/07 02:20:37;;;;;;;299.20;41.53;;;3.40;99.90;;;;;;4085019;29;20192;-92
2020/12/07 02:22:40;;;;;;;330.73;41.83;;;3.50;99.90;;;;;;4085195;29;20220;-89
2020/12/07 02:24:59;;;;;;;340.67;42.17;;;3.60;99.90;;;;;;4087462;29;20179;-90
2020/12/07 02:27:04;;;;;;;273.77;41.67;;;3.70;99.90;;;;;;4085192;29;20221;-90
2020/12/07 02:29:05;;;;;;;328.40;41.73;;;3.80;99.90;;;;;;4100992;28;20182;-91
2020/12/07 02:31:11;;;;;;;301.43;41.37;;;3.80;99.90;;;;;;4086088;29;20262;-92
2020/12/07 02:33:13;;;;;;;412.17;43.80;;;3.90;99.90;;;;;;4085061;29;20679;-91
2020/12/07 02:35:15;;;;;;;261.60;38.83;;;3.90;99.90;;;;;;4100614;29;20229;-90
2020/12/07 02:37:22;;;;;;;335.80;41.63;;;3.70;99.90;;;;;;4085776;29;20176;-90
2020/12/07 02:39:25;;;;;;;395.40;37.60;;;3.60;99.90;;;;;;4084278;29;20227;-89
2020/12/07 02:41:29;;;;;;;307.10;35.40;;;3.50;99.90;;;;;;4085060;29;20168;-90
2020/12/07 02:43:30;;;;;;;268.00;35.53;;;3.50;99.90;;;;;;4084927;29;20172;-89
2020/12/07 02:45:32;;;;;;;423.87;40.93;;;3.50;99.90;;;;;;4084805;29;20711;-89
2020/12/07 02:47:41;;;;;;;379.60;40.60;;;3.50;99.90;;;;;;4085499;29;20186;-90
2020/12/07 02:49:43;;;;;;;362.67;36.93;;;3.60;99.90;;;;;;4084532;29;20192;-91
2020/12/07 02:51:44;;;;;;;189.77;32.30;;;3.60;99.90;;;;;;4084891;29;20186;-89
2020/12/07 02:53:49;;;;;;;452.07;37.50;;;3.50;99.90;;;;;;4100648;29;20175;-89
2020/12/07 02:55:51;;;;;;;343.50;34.57;;;3.40;99.90;;;;;;4085108;29;20274;-89
2020/12/07 02:57:52;;;;;;;318.03;34.33;;;3.30;99.90;;;;;;4084411;29;20167;-89
2020/12/07 02:59:58;;;;;;;560.43;39.97;;;3.30;99.90;;;;;;4085086;29;20322;-90
2020/12/07 03:02:01;;;;;;;523.93;38.53;;;3.20;99.90;;;;;;4084977;29;20262;-88
2020/12/07 03:04:02;;;;;;;460.20;37.07;;;3.20;99.90;;;;;;4084515;29;20179;-90
2020/12/07 03:06:03;;;;;;;376.77;31.90;;;3.00;99.90;;;;;;4084330;29;20195;-89
2020/12/07 03:08:04;;;;;;;213.93;29.70;;;2.90;99.90;;;;;;4100309;29;20171;-89
2020/12/07 03:10:06;;;;;;;394.17;32.43;;;2.80;99.90;;;;;;4100540;28;20186;-88
2020/12/07 03:12:10;;;;;;;444.47;34.23;;;2.70;99.90;;;;;;4100339;28;20230;-88
2020/12/07 03:14:10;;;;;;;416.70;32.43;;;2.60;99.90;;;;;;4100133;28;20167;-89
2020/12/07 03:16:12;;;;;;;366.53;31.63;;;2.50;99.90;;;;;;4100282;28;20243;-92
2020/12/07 03:18:13;;;;;;;468.23;35.73;;;2.60;99.90;;;;;;4100321;28;20183;-90
2020/12/07 03:20:26;;;;;;;313.10;31.37;;;2.60;99.90;;;;;;4116029;28;20558;-88
2020/12/07 03:22:30;;;;;;;252.47;29.50;;;2.50;99.90;;;;;;4100615;28;20183;-89
2020/12/07 03:24:31;;;;;;;301.90;31.80;;;2.40;99.90;;;;;;4100202;29;20251;-88
2020/12/07 03:26:34;;;;;;;364.23;34.67;;;2.50;99.90;;;;;;4100261;29;20253;-88
2020/12/07 03:28:34;;;;;;;275.93;30.93;;;2.40;99.90;;;;;;4116182;28;20173;-88
2020/12/07 03:30:35;;;;;;;417.80;34.90;;;2.40;99.90;;;;;;4100011;29;20243;-89
2020/12/07 03:32:36;;;;;;;289.40;32.50;;;2.30;99.90;;;;;;4100128;29;20178;-90
2020/12/07 03:34:36;;;;;;;311.37;32.27;;;2.30;99.90;;;;;;4100109;29;20175;-88
2020/12/07 03:36:40;;;;;;;373.37;34.80;;;2.20;99.90;;;;;;4116158;28;20174;-90
2020/12/07 03:38:41;;;;;;;275.17;32.27;;;2.30;99.90;;;;;;4084273;29;20179;-89
2020/12/07 03:40:42;;;;;;;331.10;33.43;;;2.20;99.90;;;;;;4100021;29;20191;-88
2020/12/07 03:42:55;;;;;;;394.43;36.23;;;2.30;99.90;;;;;;4116203;28;20170;-89
2020/12/07 03:44:55;;;;;;;242.67;34.67;;;2.40;99.90;;;;;;4084396;29;20607;-89
2020/12/07 03:46:56;;;;;;;400.47;36.43;;;2.40;99.90;;;;;;4099790;29;20242;-89
2020/12/07 03:48:57;;;;;;;290.03;35.50;;;2.50;99.90;;;;;;4084003;29;20196;-90
2020/12/07 03:50:58;;;;;;;188.27;31.50;;;2.60;99.90;;;;;;4085757;29;20172;-89
2020/12/07 03:52:59;;;;;;;207.90;32.00;;;2.70;99.90;;;;;;4087242;29;20254;-89
2020/12/07 03:55:01;;;;;;;284.00;33.27;;;2.70;99.90;;;;;;4087405;29;20183;-89
2020/12/07 03:57:02;;;;;;;314.27;34.93;;;2.70;99.90;;;;;;4087357;29;20631;-89
2020/12/07 03:59:03;;;;;;;217.30;32.73;;;2.70;99.90;;;;;;4087069;29;20175;-88
2020/12/07 04:01:05;;;;;;;328.93;33.63;;;2.80;99.90;;;;;;4087298;29;20292;-89
2020/12/07 04:03:09;;;;;;;227.30;31.77;;;2.70;99.90;;;;;;4087196;29;20175;-89
2020/12/07 04:05:21;;;;;;;291.13;32.83;;;2.70;99.90;;;;;;4087710;29;20647;-92
2020/12/07 04:07:24;;;;;;;348.73;33.43;;;2.60;99.90;;;;;;4087051;29;20578;-88
2020/12/07 04:09:27;;;;;;;260.10;32.53;;;2.70;99.90;;;;;;4087335;29;20200;-92
2020/12/07 04:11:28;;;;;;;279.23;32.40;;;2.70;99.90;;;;;;4086740;29;20539;-90
2020/12/07 04:13:29;;;;;;;221.73;35.00;;;2.60;99.90;;;;;;4102753;29;20185;-89
2020/12/07 04:15:30;;;;;;;226.50;29.60;;;2.50;99.90;;;;;;4112435;23;20714;-95
2020/12/07 04:17:30;;;;;;;236.07;30.97;;;2.30;99.90;;;;;;4102990;29;20171;-93
2020/12/07 04:19:31;;;;;;;251.00;31.43;;;2.40;99.90;;;;;;4118533;28;20197;-94
2020/12/07 04:21:32;;;;;;;174.27;30.67;;;2.50;99.90;;;;;;4102802;29;20218;-92
2020/12/07 04:23:32;;;;;;;156.53;26.73;;;2.60;99.90;;;;;;4102678;29;20188;-93
2020/12/07 04:25:34;;;;;;;186.33;31.43;;;2.30;99.90;;;;;;4102639;28;20262;-94
2020/12/07 04:27:37;;;;;;;325.00;31.87;;;2.10;99.90;;;;;;4118570;28;20566;-94
2020/12/07 04:29:38;;;;;;;158.33;30.23;;;2.10;99.90;;;;;;4102625;29;20199;-93
2020/12/07 04:31:38;;;;;;;316.77;35.57;;;2.10;99.90;;;;;;4102460;29;20224;-94
2020/12/07 04:33:39;;;;;;;335.73;34.83;;;2.10;99.90;;;;;;4102577;29;20171;-94
2020/12/07 04:35:40;;;;;;;176.17;31.23;;;2.10;99.90;;;;;;4118934;28;20178;-91
2020/12/07 04:37:41;;;;;;;216.70;32.30;;;2.10;99.90;;;;;;4102414;29;20177;-94
2020/12/07 04:39:44;;;;;;;183.13;32.40;;;2.00;99.90;;;;;;4102353;29;20293;-93
2020/12/07 04:41:45;;;;;;;264.53;35.53;;;2.00;99.90;;;;;;4102258;29;20175;-91
2020/12/07 04:43:50;;;;;;;143.77;31.43;;;2.20;99.90;;;;;;4102368;29;20212;-95
2020/12/07 04:45:51;;;;;;;259.03;33.83;;;2.20;99.90;;;;;;4102373;29;20242;-94
2020/12/07 04:47:53;;;;;;;227.67;34.10;;;2.10;99.90;;;;;;4102464;29;20175;-94
2020/12/07 04:49:54;;;;;;;210.90;33.53;;;2.20;99.90;;;;;;4102232;29;20203;-95
2020/12/07 04:51:56;;;;;;;148.37;33.33;;;2.20;99.90;;;;;;4102147;29;20174;-92
2020/12/07 04:53:58;;;;;;;188.17;33.40;;;2.10;99.90;;;;;;4118111;28;20178;-95
2020/12/07 04:56:01;;;;;;;132.23;33.87;;;2.00;99.90;;;;;;4102030;29;20170;-93
2020/12/07 04:58:02;;;;;;;183.50;33.27;;;2.20;99.90;;;;;;4102137;29;20539;-92
2020/12/07 05:00:04;;;;;;;217.20;35.03;;;2.10;99.90;;;;;;4118242;28;20229;-93
2020/12/07 05:02:05;;;;;;;270.57;35.77;;;2.20;99.90;;;;;;4101255;28;20274;-93
2020/12/07 05:04:06;;;;;;;254.57;36.97;;;2.30;99.90;;;;;;4101903;29;20183;-95
2020/12/07 05:06:06;;;;;;;243.10;35.53;;;2.30;99.90;;;;;;4117894;28;20694;-94
2020/12/07 05:08:07;;;;;;;341.20;36.17;;;2.30;99.90;;;;;;4101886;29;20607;-94
2020/12/07 05:10:13;;;;;;;293.93;36.90;;;2.20;99.90;;;;;;4101808;28;20198;-95
2020/12/07 05:12:24;;;;;;;265.80;37.10;;;2.20;99.90;;;;;;4118036;28;20174;-93
2020/12/07 05:14:25;;;;;;;314.30;39.37;;;2.30;99.90;;;;;;4101432;28;20301;-95
2020/12/07 05:16:27;;;;;;;349.80;36.77;;;2.40;99.90;;;;;;4101861;29;20578;-93
2020/12/07 05:18:31;;;;;;;304.80;37.17;;;2.40;99.90;;;;;;4101742;29;20264;-94
2020/12/07 05:20:32;;;;;;;316.27;36.30;;;2.50;99.90;;;;;;4101850;29;20207;-93
2020/12/07 05:22:36;;;;;;;331.63;36.93;;;2.70;99.90;;;;;;4101629;29;20306;-93
2020/12/07 05:24:37;;;;;;;223.80;34.97;;;2.60;99.90;;;;;;4117578;28;20294;-94
2020/12/07 05:26:39;;;;;;;269.43;37.23;;;2.70;99.90;;;;;;4101522;29;20214;-93
2020/12/07 05:28:47;;;;;;;258.53;34.20;;;2.70;99.90;;;;;;4101553;29;20183;-93
2020/12/07 05:30:50;;;;;;;198.60;30.73;;;2.70;99.90;;;;;;4101966;29;20252;-93
2020/12/07 05:32:51;;;;;;;204.17;32.20;;;2.70;99.90;;;;;;4101704;29;20179;-93
2020/12/07 05:34:52;;;;;;;321.43;36.30;;;2.70;99.90;;;;;;4101465;29;20171;-93
2020/12/07 05:36:55;;;;;;;318.87;35.23;;;2.60;99.90;;;;;;4101464;29;20178;-91
2020/12/07 05:39:00;;;;;;;311.20;35.50;;;2.60;99.90;;;;;;4101597;29;20266;-95
2020/12/07 05:41:04;;;;;;;200.47;32.90;;;2.50;99.90;;;;;;4102055;29;20171;-93
2020/12/07 05:43:04;;;;;;;282.37;34.70;;;2.50;99.90;;;;;;4101596;29;20178;-94
2020/12/07 05:45:06;;;;;;;230.67;32.90;;;2.40;99.90;;;;;;4101639;29;20192;-94
2020/12/07 05:47:09;;;;;;;207.83;34.47;;;2.30;99.90;;;;;;4101472;29;20214;-94
2020/12/07 05:49:10;;;;;;;207.53;33.03;;;2.30;99.90;;;;;;4101173;29;20255;-94
2020/12/07 05:51:16;;;;;;;307.27;35.07;;;2.40;99.90;;;;;;4101847;29;20173;-94
2020/12/07 05:53:17;;;;;;;238.43;33.13;;;2.60;99.90;;;;;;4101801;29;20175;-94
2020/12/07 05:55:21;;;;;;;297.30;35.50;;;2.60;99.90;;;;;;4117179;28;20178;-93
2020/12/07 05:57:27;;;;;;;272.87;32.10;;;2.70;99.90;;;;;;4101323;28;20179;-95
2020/12/07 05:59:31;;;;;;;276.77;31.80;;;2.60;99.90;;;;;;4101385;29;20626;-94
2020/12/07 06:01:35;;;;;;;165.33;27.90;;;2.50;99.90;;;;;;4117190;28;20206;-94
2020/12/07 06:03:37;;;;;;;262.93;32.93;;;2.30;99.90;;;;;;4100943;28;20175;-92
2020/12/07 06:05:41;;;;;;;287.47;33.63;;;2.20;99.90;;;;;;4117303;28;20171;-94
2020/12/07 06:07:49;;;;;;;216.37;33.40;;;2.20;99.90;;;;;;4101081;29;20190;-94
2020/12/07 06:09:50;;;;;;;164.87;31.80;;;2.30;99.90;;;;;;4101768;28;20195;-93
2020/12/07 06:12:14;;;;;;;264.80;33.60;;;2.60;99.90;;;;;;4101553;28;20190;-94
2020/12/07 06:14:17;;;;;;;322.53;33.83;;;2.30;99.90;;;;;;4100021;28;20215;-93
2020/12/07 06:16:18;;;;;;;290.63;33.47;;;2.40;99.90;;;;;;4100926;29;20190;-95
2020/12/07 06:18:44;;;;;;;295.83;35.80;;;2.50;99.90;;;;;;4101067;29;20179;-93
2020/12/07 06:20:45;;;;;;;181.10;32.93;;;2.70;99.90;;;;;;4116700;28;20208;-93
2020/12/07 06:22:58;;;;;;;188.83;31.97;;;2.60;99.90;;;;;;4100994;29;20171;-94
2020/12/07 06:24:58;;;;;;;156.60;28.83;;;2.40;99.90;;;;;;4101338;29;20171;-93
2020/12/07 06:27:03;;;;;;;175.97;30.87;;;2.20;99.90;;;;;;4100760;28;20211;-94
2020/12/07 06:29:07;;;;;;;131.27;33.10;;;2.10;99.90;;;;;;4101015;29;20210;-94
2020/12/07 06:31:17;;;;;;;183.07;32.83;;;2.10;99.90;;;;;;4100666;29;20183;-93
2020/12/07 06:33:20;;;;;;;191.23;31.33;;;2.10;99.90;;;;;;4100790;29;20170;-95
2020/12/07 06:35:21;;;;;;;199.03;32.60;;;2.10;99.90;;;;;;4100843;29;20167;-93
2020/12/07 06:37:24;;;;;;;217.17;30.70;;;2.00;99.90;;;;;;4101017;29;20182;-93
2020/12/07 06:39:28;;;;;;;200.07;30.47;;;2.20;99.90;;;;;;4100805;28;20203;-94
2020/12/07 06:41:42;;;;;;;211.70;31.93;;;2.10;99.90;;;;;;4100806;29;20619;-95
2020/12/07 06:43:56;;;;;;;144.03;30.63;;;2.00;99.90;;;;;;4116790;28;20173;-92
2020/12/07 06:45:57;;;;;;;138.67;27.10;;;1.90;99.90;;;;;;4100908;29;20195;-92
2020/12/07 07:05:43;;;;;;;;;;;;;;;;;;;;;
2020/12/07 07:15:00;;;;;;;158.70;32.40;;;1.70;99.90;;;;;;4321655;23;20279;-94
2020/12/07 07:18:01;;;;;;;63.23;26.57;;;1.70;99.90;;;;;;4111858;28;20194;-93
2020/12/07 07:20:49;;;;;;;146.07;33.13;;;1.60;99.90;;;;;;4182117;23;20228;-93
2020/12/07 07:26:01;;;;;;;104.43;32.73;;;1.90;99.90;;;;;;4048665;29;20273;-92
2020/12/07 07:28:31;;;;;;;124.60;33.27;;;1.80;99.90;;;;;;4030188;29;20218;-92
2020/12/07 07:33:53;;;;;;;145.63;34.87;;;1.70;99.90;;;;;;4248574;23;20221;-91
2020/12/07 07:35:56;;;;;;;94.60;29.47;;;1.70;99.90;;;;;;4032222;29;20654;-92
2020/12/07 07:43:19;;;;;;;171.37;34.10;;;2.00;99.90;;;;;;4077732;29;20230;-92
2020/12/07 07:45:44;;;;;;;176.90;37.10;;;2.10;99.90;;;;;;4066578;29;20188;-92
2020/12/07 08:18:18;;;;;;;111.67;32.83;;;2.70;99.90;;;;;;4799363;23;20233;-91
2020/12/07 08:20:37;;;;;;;153.37;37.03;;;2.70;99.90;;;;;;4091255;29;20614;-92
2020/12/07 08:23:45;;;;;;;160.67;37.10;;;2.70;99.90;;;;;;4107507;28;20712;-92
2020/12/07 08:26:39;;;;;;;470.83;50.23;;;2.70;99.90;;;;;;4109095;28;20199;-92
2020/12/07 08:28:49;;;;;;;589.47;54.20;;;2.90;99.90;;;;;;4110263;28;20183;-91
2020/12/07 08:31:34;;;;;;;129.40;34.53;;;2.90;99.90;;;;;;4265735;23;20197;-92
2020/12/07 08:34:16;;;;;;;155.40;35.57;;;2.60;99.90;;;;;;4105521;28;20183;-91
2020/12/07 08:36:37;;;;;;;140.17;34.10;;;2.30;99.90;;;;;;4302534;23;20218;-91
2020/12/07 08:38:50;;;;;;;173.73;33.77;;;2.30;99.90;;;;;;4088062;29;20201;-91
2020/12/07 08:41:14;;;;;;;82.23;29.73;;;2.10;99.90;;;;;;4124737;28;20202;-92
2020/12/07 08:43:30;;;;;;;93.63;28.40;;;2.00;99.90;;;;;;4104584;29;20183;-93
2020/12/07 08:48:07;;;;;;;177.00;34.50;;;1.90;99.90;;;;;;4689314;23;20210;-93
2020/12/07 08:50:12;;;;;;;109.33;33.80;;;2.10;99.90;;;;;;4107461;28;20245;-93
2020/12/07 08:55:46;;;;;;;125.43;34.43;;;2.20;99.90;;;;;;4076696;29;20287;-92
2020/12/07 08:58:01;;;;;;;84.53;27.67;;;2.20;99.90;;;;;;4061654;29;20276;-92
2020/12/07 09:06:55;;;;;;;116.27;35.27;;;2.30;99.90;;;;;;4411290;23;20212;-92
2020/12/07 09:09:12;;;;;;;162.70;34.80;;;2.50;99.90;;;;;;4109213;28;20182;-92
2020/12/07 09:22:30;;;;;;;187.73;38.43;;;2.20;99.90;;;;;;4644441;23;20250;-92
2020/12/07 09:27:09;;;;;;;108.83;34.03;;;2.20;99.90;;;;;;4420402;23;20243;-94
2020/12/07 09:32:22;;;;;;;111.10;35.93;;;2.10;99.90;;;;;;4561604;23;20497;-92
2020/12/07 09:44:28;;;;;;;161.60;37.07;;;2.50;99.90;;;;;;4554881;23;20651;-92
2020/12/07 09:47:20;;;;;;;133.40;31.67;;;2.70;99.90;;;;;;4421507;23;20195;-92
2020/12/07 10:02:17;;;;;;;103.30;33.37;;;3.20;99.90;;;;;;4046837;29;20225;-93
2020/12/07 10:05:04;;;;;;;136.50;34.53;;;3.10;99.90;;;;;;4030310;29;20170;-94
2020/12/07 10:08:13;;;;;;;;;;;;;;;;;;;;;
2020/12/07 10:13:12;;;;;;;169.57;34.13;;;2.60;99.90;;;;;;4316511;23;20247;-92
2020/12/07 10:20:26;;;;;;;165.17;33.00;;;2.80;99.90;;;;;;4792416;23;20236;-94
2020/12/07 10:22:27;;;;;;;215.87;33.60;;;2.50;99.90;;;;;;4022701;29;20178;-92
2020/12/07 10:24:27;;;;;;;93.00;32.53;;;2.70;99.90;;;;;;4022707;29;20236;-92
2020/12/07 10:26:33;;;;;;;106.77;26.73;;;2.60;99.90;;;;;;4038016;29;20216;-93
2020/12/07 10:28:34;;;;;;;138.57;30.40;;;2.50;99.90;;;;;;4022652;29;20170;-92
2020/12/07 10:30:34;;;;;;;249.70;37.67;;;2.20;99.90;;;;;;4038342;29;20201;-93
2020/12/07 10:32:35;;;;;;;150.70;34.63;;;2.20;99.90;;;;;;4022596;29;20658;-93
2020/12/07 10:34:37;;;;;;;141.10;27.30;;;2.30;99.90;;;;;;4037999;29;20181;-93
2020/12/07 10:36:38;;;;;;;223.83;33.80;;;2.20;99.90;;;;;;4022529;29;20250;-93
2020/12/07 10:38:40;;;;;;;193.20;30.60;;;2.20;99.90;;;;;;4038455;29;20637;-92
2020/12/07 10:40:41;;;;;;;140.00;35.83;;;2.20;99.90;;;;;;4037858;29;20190;-93
2020/12/07 10:42:41;;;;;;;127.77;35.53;;;2.30;99.90;;;;;;4037957;29;20269;-92
2020/12/07 10:44:42;;;;;;;206.80;34.10;;;2.40;99.90;;;;;;4022396;29;20170;-92
2020/12/07 10:46:44;;;;;;;134.40;33.63;;;2.40;99.90;;;;;;4037955;29;20292;-92
2020/12/07 10:48:46;;;;;;;88.30;28.97;;;2.40;99.90;;;;;;4022543;29;20689;-93
2020/12/07 10:50:47;;;;;;;201.20;36.70;;;2.30;99.90;;;;;;4022318;29;20194;-92
2020/12/07 10:52:50;;;;;;;279.23;40.30;;;2.20;99.90;;;;;;4022346;29;20196;-93
2020/12/07 10:54:51;;;;;;;187.57;36.50;;;2.30;99.90;;;;;;4022342;29;20254;-93
2020/12/07 10:56:53;;;;;;;195.63;34.60;;;2.40;99.90;;;;;;4022441;29;20189;-93
2020/12/07 10:58:54;;;;;;;185.07;36.17;;;2.30;99.90;;;;;;4038195;29;20558;-94
2020/12/07 11:00:54;;;;;;;289.73;35.43;;;2.40;99.90;;;;;;4022642;29;20298;-92
2020/12/07 11:02:55;;;;;;;217.10;32.47;;;2.50;99.90;;;;;;4022455;29;20653;-92
2020/12/07 11:04:56;;;;;;;206.10;35.77;;;2.50;99.90;;;;;;4022774;29;20197;-92
2020/12/07 11:06:58;;;;;;;185.70;35.53;;;2.40;99.90;;;;;;4022527;29;20209;-92
2020/12/07 11:09:04;;;;;;;135.33;32.83;;;2.40;99.90;;;;;;4022302;29;20319;-93
2020/12/07 11:11:08;;;;;;;126.90;32.73;;;2.30;99.90;;;;;;4022493;29;20198;-92
2020/12/07 11:13:28;;;;;;;155.63;34.27;;;2.30;99.90;;;;;;4022415;29;20188;-93
2020/12/07 11:15:31;;;;;;;150.70;38.33;;;2.30;99.90;;;;;;4038144;29;20181;-92
2020/12/07 11:17:32;;;;;;;136.43;37.43;;;2.40;99.90;;;;;;4022329;29;20659;-93
2020/12/07 11:19:33;;;;;;;124.63;38.27;;;2.50;99.90;;;;;;4022295;29;20210;-92
2020/12/07 11:21:33;;;;;;;229.27;42.80;;;2.70;99.90;;;;;;4022233;29;20309;-93
2020/12/07 11:23:34;;;;;;;84.10;37.13;;;3.10;99.90;;;;;;4022391;29;20197;-93
2020/12/07 11:25:35;;;;;;;154.10;38.43;;;3.10;99.90;;;;;;4037540;29;20184;-93
2020/12/07 11:27:36;;;;;;;173.17;37.83;;;3.00;99.90;;;;;;4037502;29;20216;-93
2020/12/07 11:29:36;;;;;;;123.20;40.97;;;3.00;99.90;;;;;;4022022;29;20677;-92
2020/12/07 11:31:37;;;;;;;129.53;38.90;;;3.10;99.90;;;;;;4037464;29;20758;-92
2020/12/07 11:33:38;;;;;;;101.57;36.93;;;3.10;99.90;;;;;;4022356;29;20181;-93
2020/12/07 11:35:39;;;;;;;111.30;35.97;;;2.90;99.90;;;;;;4022217;29;20243;-93
2020/12/07 11:37:40;;;;;;;108.50;38.50;;;2.60;99.90;;;;;;4037462;29;21012;-93
2020/12/07 11:39:54;;;;;;;113.60;40.13;;;2.50;99.90;;;;;;4022064;29;20230;-92
2020/12/07 11:44:15;;;;;;;88.93;30.73;;;2.60;99.90;;;;;;4037437;29;20249;-94
2020/12/07 11:46:18;;;;;;;118.57;38.60;;;2.50;99.90;;;;;;4037424;29;20716;-92
2020/12/07 11:48:19;;;;;;;112.97;39.47;;;2.30;99.90;;;;;;4021932;29;20175;-93
2020/12/07 11:50:19;;;;;;;138.30;35.73;;;2.30;99.90;;;;;;4021742;29;20205;-93
2020/12/07 11:52:20;;;;;;;154.37;36.37;;;2.40;99.90;;;;;;4021877;29;20604;-94
2020/12/07 11:54:21;;;;;;;153.87;37.33;;;2.60;99.90;;;;;;4022320;29;20202;-92
2020/12/07 11:56:33;;;;;;;107.63;37.50;;;2.90;99.90;;;;;;4022184;29;20182;-92
2020/12/07 11:58:34;;;;;;;134.80;41.33;;;2.70;99.90;;;;;;4037866;29;20177;-92
2020/12/07 12:00:36;;;;;;;120.23;39.27;;;2.80;99.90;;;;;;4021827;29;20187;-92
2020/12/07 12:02:39;;;;;;;133.27;40.90;;;2.90;99.90;;;;;;4021945;29;20281;-93
2020/12/07 12:04:40;;;;;;;126.87;41.07;;;3.10;99.90;;;;;;4021927;29;20163;-93
2020/12/07 12:06:42;;;;;;;124.73;42.03;;;3.40;99.90;;;;;;4022009;29;20228;-92
2020/12/07 12:08:43;;;;;;;110.30;41.30;;;3.50;99.90;;;;;;4021866;29;20174;-92
2020/12/07 12:10:48;;;;;;;131.80;35.40;;;3.50;99.90;;;;;;4022008;29;20429;-92
2020/12/07 12:12:49;;;;;;;96.20;35.57;;;3.40;99.90;;;;;;4038418;29;20193;-93
2020/12/07 12:14:49;;;;;;;87.07;32.93;;;3.20;99.90;;;;;;4024770;29;20534;-94
2020/12/07 12:16:50;;;;;;;105.30;40.57;;;2.80;99.90;;;;;;4024542;29;20230;-95
2020/12/07 12:18:51;;;;;;;94.97;40.97;;;2.90;99.90;;;;;;4039707;29;20218;-92
2020/12/07 12:20:52;;;;;;;88.23;38.43;;;2.90;99.90;;;;;;4024425;29;20238;-92
2020/12/07 12:22:53;;;;;;;89.70;40.13;;;2.80;99.90;;;;;;4024401;29;20190;-93
2020/12/07 12:24:54;;;;;;;94.10;40.17;;;2.80;99.90;;;;;;4024286;29;20614;-92
2020/12/07 12:26:55;;;;;;;109.40;38.70;;;2.80;99.90;;;;;;4024400;29;20214;-92
2020/12/07 12:28:56;;;;;;;78.07;32.33;;;2.80;99.90;;;;;;4024245;29;20255;-93
2020/12/07 12:30:59;;;;;;;68.70;29.00;;;2.80;99.90;;;;;;4024596;29;20170;-94
2020/12/07 12:32:59;;;;;;;96.10;39.03;;;2.70;99.90;;;;;;4025026;29;20225;-94
2020/12/07 12:35:00;;;;;;;85.27;38.17;;;2.70;99.90;;;;;;4024224;29;20210;-93
2020/12/07 12:37:01;;;;;;;91.23;36.97;;;2.80;99.90;;;;;;4024305;29;20171;-94
2020/12/07 12:39:03;;;;;;;78.93;37.00;;;3.10;99.90;;;;;;4024095;29;20182;-93
2020/12/07 12:41:03;;;;;;;83.67;38.83;;;3.20;99.90;;;;;;4024482;29;20197;-92
2020/12/07 12:43:04;;;;;;;71.87;33.60;;;3.00;99.90;;;;;;4024092;29;20178;-93
2020/12/07 12:45:05;;;;;;;85.37;38.93;;;2.90;99.90;;;;;;4024988;29;20171;-94